Sprague, Nebraska
Current Conditions -  °F | °C
As of 3:54 PM on Monday 20 Oct 2014 (Local Time) from KLNK Reporting Station
Haze Haze  
Wind Chill: 74°   Ceiling: Unl
Heat Index: 74°   Visibility: 6mi
Dew Point: 37°   Wind: 6mph
Humidity: 26%   Direction: 350°N
Pressure: 30.06"   Gusts: NA
Location:  40.63°N, 96.74°W
Report Text: KLNK 202054Z 35005KT 6SM HZ CLR 23/03 A3006 RMK AO2 SLP175 T02330028 56017
Loading
Personal Weather Stations






























Interactive Weather Map
Tropical Storm Tracking
New forecast layout! Learn more

10-Day Weather Forecast

Advertisements
Track Severe Weather on mobile